createdAt,value
2022-08-20T00:01:02.399Z,2.13
2022-08-20T00:04:11.003Z,2.42
2022-08-20T00:07:16.529Z,3.25
2022-08-20T00:10:20.380Z,2.30
2022-08-20T00:13:33.804Z,1.77
2022-08-20T00:16:41.503Z,1.67
2022-08-20T00:19:45.585Z,1.85
2022-08-20T00:22:49.067Z,1.80
2022-08-20T00:25:53.980Z,1.35
2022-08-20T00:29:00.596Z,1.50
2022-08-20T00:32:04.280Z,1.77
2022-08-20T00:35:08.204Z,1.50
2022-08-20T00:38:16.989Z,1.45
2022-08-20T00:41:25.477Z,1.00
2022-08-20T00:44:29.308Z,1.20
2022-08-20T00:47:32.451Z,0.88
2022-08-20T00:50:39.143Z,1.30
2022-08-20T00:53:44.569Z,1.02
2022-08-20T00:56:53.792Z,1.25
2022-08-20T00:59:59.607Z,1.20
2022-08-20T01:03:03.345Z,1.40
2022-08-20T01:06:06.871Z,1.20
2022-08-20T01:09:10.673Z,1.05
2022-08-20T01:12:17.032Z,1.60
2022-08-20T01:15:26.941Z,1.60
2022-08-20T01:18:34.923Z,1.30
2022-08-20T01:21:38.851Z,1.60
2022-08-20T01:24:45.016Z,1.23
2022-08-20T01:27:54.205Z,1.10
2022-08-20T01:30:59.307Z,1.50
2022-08-20T01:34:05.546Z,1.30
2022-08-20T01:37:10.040Z,1.38
2022-08-20T01:40:17.920Z,1.52
2022-08-20T01:43:22.060Z,1.20
2022-08-20T01:46:57.683Z,1.50
2022-08-20T01:50:08.855Z,1.08
2022-08-20T01:53:31.009Z,1.65
2022-08-20T01:56:36.120Z,1.95
2022-08-20T01:59:40.806Z,1.80
2022-08-20T02:02:44.885Z,1.98
2022-08-20T02:05:48.200Z,1.50
2022-08-20T02:08:53.639Z,1.27
2022-08-20T02:11:58.123Z,1.40
2022-08-20T02:15:01.933Z,1.88
2022-08-20T02:18:08.259Z,1.92
2022-08-20T02:21:12.016Z,1.40
2022-08-20T02:24:16.018Z,1.30
2022-08-20T02:27:21.039Z,1.65
2022-08-20T02:30:33.892Z,1.20
2022-08-20T02:33:37.635Z,1.52
2022-08-20T02:36:44.527Z,0.98
2022-08-20T02:39:48.636Z,1.15
2022-08-20T02:42:52.921Z,1.00
2022-08-20T02:45:56.594Z,1.10
2022-08-20T02:49:00.956Z,1.10
2022-08-20T02:52:05.659Z,1.30
2022-08-20T02:55:10.713Z,1.33
2022-08-20T02:58:31.528Z,1.27
2022-08-20T03:01:35.429Z,1.40
2022-08-20T03:04:40.081Z,1.25
2022-08-20T03:07:50.260Z,1.40
2022-08-20T03:10:54.678Z,1.10
2022-08-20T03:13:58.405Z,1.30
2022-08-20T03:17:03.043Z,1.70
2022-08-20T03:20:08.770Z,1.73
2022-08-20T03:23:14.165Z,1.95
2022-08-20T03:26:17.920Z,1.55
2022-08-20T03:29:21.567Z,1.10
2022-08-20T03:32:25.184Z,1.10
2022-08-20T03:35:32.208Z,1.05
2022-08-20T03:38:35.584Z,1.23
2022-08-20T03:41:40.206Z,1.15
2022-08-20T03:44:43.942Z,1.20
2022-08-20T03:47:48.638Z,1.27
2022-08-20T03:50:52.484Z,0.98
2022-08-20T03:53:56.566Z,1.05
2022-08-20T03:57:01.826Z,1.50
2022-08-20T04:00:07.395Z,1.00
2022-08-20T04:03:14.943Z,0.95
2022-08-20T04:06:19.194Z,0.90
2022-08-20T04:09:22.481Z,0.75
2022-08-20T04:12:26.775Z,1.08
2022-08-20T04:15:32.880Z,0.80
2022-08-20T04:18:37.848Z,0.95
2022-08-20T04:21:41.660Z,1.00
2022-08-20T04:24:45.856Z,1.23
2022-08-20T04:27:51.202Z,1.40
2022-08-20T04:30:56.515Z,0.88
2022-08-20T04:34:05.449Z,1.45
2022-08-20T04:37:16.820Z,1.23
2022-08-20T04:40:39.620Z,1.00
2022-08-20T04:43:43.343Z,1.50
2022-08-20T04:46:46.900Z,1.00
2022-08-20T04:49:50.594Z,0.90
2022-08-20T04:52:54.196Z,0.75
2022-08-20T04:56:01.136Z,0.80
2022-08-20T04:59:05.911Z,1.17
2022-08-20T05:02:09.837Z,1.20
2022-08-20T05:05:14.958Z,1.02
2022-08-20T05:08:20.466Z,0.80
2022-08-20T05:11:34.620Z,1.33
2022-08-20T05:14:40.481Z,1.10
2022-08-20T05:17:44.971Z,1.30
2022-08-20T05:20:49.828Z,0.80
2022-08-20T05:23:52.971Z,1.15
2022-08-20T05:26:57.151Z,1.20
2022-08-20T05:30:03.159Z,1.27
2022-08-20T05:33:10.890Z,1.10
2022-08-20T05:36:15.631Z,1.00
2022-08-20T05:39:22.830Z,1.30
2022-08-20T05:42:28.087Z,0.88
2022-08-20T05:45:33.314Z,1.30
2022-08-20T05:48:37.158Z,1.10
2022-08-20T05:51:40.823Z,0.85
2022-08-20T05:54:44.030Z,0.93
2022-08-20T05:57:47.943Z,0.65
2022-08-20T06:00:53.086Z,0.75
2022-08-20T06:04:16.010Z,1.00
2022-08-20T06:07:19.563Z,0.70
2022-08-20T06:10:23.294Z,1.10
2022-08-20T06:13:28.092Z,0.90
2022-08-20T06:16:32.944Z,0.68
2022-08-20T06:19:38.073Z,0.60
2022-08-20T06:22:42.055Z,0.52
2022-08-20T06:25:46.152Z,0.57
2022-08-20T06:28:49.852Z,1.00
2022-08-20T06:31:58.150Z,1.00
2022-08-20T06:35:03.627Z,0.70
2022-08-20T06:38:07.094Z,0.70
2022-08-20T06:41:10.416Z,0.50
2022-08-20T06:44:14.877Z,0.70
2022-08-20T06:47:21.144Z,0.63
2022-08-20T06:50:29.987Z,0.65
2022-08-20T06:53:34.132Z,0.60
2022-08-20T06:56:38.190Z,0.60
2022-08-20T06:59:42.928Z,0.70
2022-08-20T07:02:48.571Z,0.50
2022-08-20T07:05:52.111Z,0.60
2022-08-20T07:08:56.299Z,0.55
2022-08-20T07:11:59.863Z,0.60
2022-08-20T07:15:05.978Z,0.80
2022-08-20T07:18:10.003Z,0.60
2022-08-20T07:21:13.341Z,0.70
2022-08-20T07:24:17.532Z,0.65
2022-08-20T07:27:23.082Z,0.60
2022-08-20T07:30:56.549Z,0.70
2022-08-20T07:34:01.458Z,0.65
2022-08-20T07:37:07.361Z,0.60
2022-08-20T07:40:21.381Z,0.80
2022-08-20T07:43:29.928Z,0.40
2022-08-20T07:46:33.784Z,0.88
2022-08-20T07:49:41.302Z,0.50
2022-08-20T07:52:46.750Z,0.60
2022-08-20T07:55:58.718Z,1.00
2022-08-20T07:59:03.692Z,1.10
2022-08-20T08:02:07.797Z,1.38
2022-08-20T08:05:11.911Z,0.70
2022-08-20T08:08:24.583Z,0.80
2022-08-20T08:11:28.298Z,0.80
2022-08-20T08:14:35.601Z,0.80
2022-08-20T08:17:39.453Z,1.05
2022-08-20T08:20:46.982Z,0.90
2022-08-20T08:23:51.097Z,1.58
2022-08-20T08:26:55.182Z,1.33
2022-08-20T08:30:02.423Z,1.60
2022-08-20T08:33:25.066Z,1.20
2022-08-20T08:36:28.527Z,0.95
2022-08-20T08:39:35.134Z,1.00
2022-08-20T08:42:56.115Z,0.70
2022-08-20T08:46:07.283Z,0.70
2022-08-20T08:49:15.361Z,1.30
2022-08-20T08:52:34.263Z,0.90
2022-08-20T08:55:37.608Z,1.00
2022-08-20T08:58:41.586Z,1.00
2022-08-20T09:01:53.729Z,1.10
2022-08-20T09:05:03.347Z,1.42
2022-08-20T09:08:16.700Z,3.03
2022-08-20T09:11:23.810Z,1.40
2022-08-20T09:14:27.371Z,1.05
2022-08-20T09:17:31.065Z,1.10
2022-08-20T09:20:35.240Z,1.08
2022-08-20T09:23:39.816Z,1.23
2022-08-20T09:26:43.508Z,1.08
2022-08-20T09:29:48.413Z,0.90
2022-08-20T09:32:53.246Z,1.00
2022-08-20T09:35:57.356Z,1.30
2022-08-20T09:39:02.670Z,1.60
2022-08-20T09:42:10.908Z,3.03
2022-08-20T09:45:14.796Z,1.70
2022-08-20T09:48:18.479Z,1.60
2022-08-20T09:51:22.722Z,0.98
2022-08-20T09:54:30.855Z,1.20
2022-08-20T09:57:35.864Z,1.10
2022-08-20T10:00:41.634Z,1.33
2022-08-20T10:03:48.635Z,1.70
2022-08-20T10:09:56.441Z,1.45
2022-08-20T10:13:00.860Z,1.50
2022-08-20T10:16:04.982Z,1.08
2022-08-20T10:19:09.314Z,1.02
2022-08-20T10:22:12.752Z,0.93
2022-08-20T10:25:18.567Z,1.15
2022-08-20T10:28:22.115Z,1.10
2022-08-20T10:31:26.143Z,1.10
2022-08-20T10:34:29.766Z,1.92
2022-08-20T10:37:35.409Z,2.42
2022-08-20T10:40:39.225Z,2.67
2022-08-20T10:43:43.440Z,3.08
2022-08-20T10:46:46.825Z,2.30
2022-08-20T10:49:52.469Z,1.65
2022-08-20T10:52:56.191Z,2.30
2022-08-20T10:56:00.349Z,1.90
2022-08-20T10:59:03.750Z,1.67
2022-08-20T11:02:07.850Z,2.70
2022-08-20T11:05:11.243Z,2.72
2022-08-20T11:08:15.701Z,3.05
2022-08-20T11:11:37.314Z,3.80
2022-08-20T11:14:41.766Z,3.40
2022-08-20T11:17:46.355Z,3.33
2022-08-20T11:20:50.513Z,3.83
2022-08-20T11:23:53.728Z,3.50
2022-08-20T11:26:57.937Z,3.42
2022-08-20T11:30:01.614Z,3.67
2022-08-20T11:33:06.033Z,3.65
2022-08-20T11:36:09.751Z,5.03
2022-08-20T11:39:13.760Z,5.40
2022-08-20T11:42:17.167Z,2.70
2022-08-20T11:45:21.202Z,3.60
2022-08-20T11:48:25.575Z,3.20
2022-08-20T11:51:30.047Z,3.55
2022-08-20T11:54:40.989Z,3.60
2022-08-20T11:57:47.676Z,3.75
2022-08-20T12:03:55.077Z,4.45
2022-08-20T12:06:58.591Z,4.47
2022-08-20T12:10:07.544Z,5.80
2022-08-20T12:13:11.241Z,7.70
2022-08-20T12:16:15.509Z,7.10
2022-08-20T12:19:18.894Z,5.72
2022-08-20T12:22:25.185Z,5.60
2022-08-20T12:25:29.094Z,8.75
2022-08-20T12:28:33.496Z,10.02
2022-08-20T12:31:36.690Z,6.95
2022-08-20T12:34:42.461Z,9.15
2022-08-20T12:37:47.034Z,8.88
2022-08-20T12:40:51.135Z,7.50
2022-08-20T12:43:54.785Z,9.13
2022-08-20T12:47:24.725Z,7.82
2022-08-20T12:50:31.467Z,7.75
2022-08-20T12:53:36.203Z,4.95
2022-08-20T12:56:40.143Z,6.90
2022-08-20T12:59:43.980Z,6.85
2022-08-20T13:02:47.178Z,6.45
2022-08-20T13:05:51.094Z,4.85
2022-08-20T13:08:54.663Z,5.25
2022-08-20T13:11:58.324Z,4.57
2022-08-20T13:15:02.023Z,5.20
2022-08-20T13:18:07.772Z,6.22
2022-08-20T13:21:11.427Z,5.68
2022-08-20T13:24:15.218Z,5.63
2022-08-20T13:27:20.430Z,5.68
2022-08-20T13:30:24.983Z,5.07
2022-08-20T13:33:30.030Z,4.43
2022-08-20T13:36:35.593Z,4.85
2022-08-20T13:39:40.692Z,5.50
2022-08-20T13:42:44.748Z,5.40
2022-08-20T13:45:48.088Z,5.30
2022-08-20T13:48:51.737Z,5.28
2022-08-20T13:51:54.997Z,5.75
2022-08-20T13:54:59.820Z,7.15
2022-08-20T13:58:07.069Z,8.68
2022-08-20T14:01:11.067Z,8.65
2022-08-20T14:04:14.371Z,8.32
2022-08-20T14:07:21.268Z,6.72
2022-08-20T14:10:27.463Z,5.35
2022-08-20T14:13:31.990Z,6.90
2022-08-20T14:16:35.832Z,6.93
2022-08-20T14:19:40.153Z,5.25
2022-08-20T14:22:43.831Z,5.95
2022-08-20T14:25:49.070Z,4.95
2022-08-20T14:28:52.301Z,5.40
2022-08-20T14:31:56.164Z,4.28
2022-08-20T14:35:00.059Z,4.65
2022-08-20T14:38:05.450Z,4.38
2022-08-20T14:41:09.310Z,3.97
2022-08-20T14:44:13.713Z,4.40
2022-08-20T14:47:29.198Z,4.10
2022-08-20T14:50:35.079Z,4.40
2022-08-20T14:53:40.444Z,4.60
2022-08-20T14:56:44.621Z,5.50
2022-08-20T14:59:48.813Z,6.00
2022-08-20T15:02:53.081Z,5.68
2022-08-20T15:05:56.339Z,4.63
2022-08-20T15:09:00.506Z,5.30
2022-08-20T15:12:03.993Z,4.97
2022-08-20T15:15:15.586Z,4.88
2022-08-20T15:18:19.804Z,4.22
2022-08-20T15:21:23.407Z,3.83
2022-08-20T15:24:27.192Z,3.75
2022-08-20T15:27:30.914Z,4.30
2022-08-20T15:30:34.923Z,4.05
2022-08-20T15:33:38.402Z,4.28
2022-08-20T15:36:42.773Z,4.30
2022-08-20T15:39:47.455Z,3.60
2022-08-20T15:42:50.768Z,3.90
2022-08-20T15:45:55.047Z,3.47
2022-08-20T15:48:58.369Z,4.20
2022-08-20T15:52:02.693Z,3.58
2022-08-20T15:55:07.144Z,3.88
2022-08-20T15:58:16.477Z,3.80
2022-08-20T16:01:45.414Z,3.50
2022-08-20T16:04:58.126Z,3.72
2022-08-20T16:08:13.792Z,3.47
2022-08-20T16:11:51.655Z,4.28
2022-08-20T16:15:02.538Z,4.13
2022-08-20T16:18:15.562Z,4.20
2022-08-20T16:21:29.549Z,4.22
2022-08-20T16:24:33.753Z,3.80
2022-08-20T16:28:01.693Z,3.38
2022-08-20T16:31:14.067Z,3.80
2022-08-20T16:34:34.835Z,4.03
2022-08-20T16:37:59.692Z,4.00
2022-08-20T16:41:13.971Z,3.25
2022-08-20T16:44:37.764Z,2.83
2022-08-20T16:47:43.771Z,3.10
2022-08-20T16:50:58.741Z,2.60
2022-08-20T16:54:02.087Z,2.63
2022-08-20T16:57:07.043Z,2.80
2022-08-20T17:00:22.334Z,2.42
2022-08-20T17:03:39.427Z,2.53
2022-08-20T17:06:50.076Z,2.63
2022-08-20T17:09:58.626Z,3.05
2022-08-20T17:13:15.161Z,2.78
2022-08-20T17:16:21.712Z,2.53
2022-08-20T17:19:34.948Z,3.58
2022-08-20T17:22:52.577Z,2.10
2022-08-20T17:26:03.061Z,2.10
2022-08-20T17:29:18.464Z,2.35
2022-08-20T17:32:29.621Z,2.22
2022-08-20T17:35:49.221Z,2.33
2022-08-20T17:38:55.690Z,1.90
2022-08-20T17:42:05.867Z,2.17
2022-08-20T17:45:16.130Z,2.20
2022-08-20T17:48:25.679Z,2.42
2022-08-20T17:51:37.450Z,2.15
2022-08-20T17:54:44.665Z,2.20
2022-08-20T17:57:53.376Z,2.00
2022-08-20T18:00:56.912Z,2.00
2022-08-20T18:04:00.779Z,2.70
2022-08-20T18:07:39.565Z,2.85
2022-08-20T18:11:00.209Z,1.85
2022-08-20T18:14:34.117Z,1.90
2022-08-20T18:17:40.581Z,1.70
2022-08-20T18:21:31.206Z,1.58
2022-08-20T18:24:40.921Z,1.65
2022-08-20T18:27:49.776Z,1.60
2022-08-20T18:30:59.768Z,1.67
2022-08-20T18:34:21.401Z,1.23
2022-08-20T18:37:28.444Z,1.65
2022-08-20T18:40:34.208Z,1.40
2022-08-20T18:43:38.473Z,1.60
2022-08-20T18:47:01.033Z,1.40
2022-08-20T18:50:16.736Z,1.48
2022-08-20T18:53:30.408Z,1.40
2022-08-20T18:56:40.891Z,1.60
2022-08-20T18:59:51.796Z,1.50
2022-08-20T19:03:16.015Z,1.60
2022-08-20T19:06:52.453Z,1.67
2022-08-20T19:10:27.653Z,1.73
2022-08-20T19:14:09.138Z,1.73
2022-08-20T19:17:44.529Z,1.77
2022-08-20T19:21:00.077Z,1.60
2022-08-20T19:24:07.372Z,2.00
2022-08-20T19:27:11.930Z,2.00
2022-08-20T19:30:15.513Z,2.08
2022-08-20T19:33:43.824Z,1.73
2022-08-20T19:36:58.887Z,1.85
2022-08-20T19:40:22.628Z,1.60
2022-08-20T19:43:30.302Z,1.50
2022-08-20T19:46:44.372Z,1.75
2022-08-20T19:50:16.664Z,1.50
2022-08-20T19:53:32.410Z,1.50
2022-08-20T19:56:41.625Z,1.40
2022-08-20T20:00:12.503Z,1.70
2022-08-20T20:03:19.680Z,1.73
2022-08-20T20:06:25.341Z,1.50
2022-08-20T20:09:30.597Z,1.95
2022-08-20T20:12:35.434Z,1.23
2022-08-20T20:15:40.552Z,1.60
2022-08-20T20:18:44.597Z,1.20
2022-08-20T20:21:52.524Z,1.50
2022-08-20T20:25:24.098Z,1.40
2022-08-20T20:28:30.897Z,1.27
2022-08-20T20:32:12.792Z,1.17
2022-08-20T20:35:31.200Z,1.55
2022-08-20T20:38:35.812Z,1.60
2022-08-20T20:41:38.728Z,1.50
2022-08-20T20:44:45.826Z,1.40
2022-08-20T20:47:52.431Z,1.63
2022-08-20T20:50:58.630Z,1.08
2022-08-20T20:54:07.162Z,1.58
2022-08-20T20:57:38.263Z,1.38
2022-08-20T21:00:42.588Z,1.27
2022-08-20T21:03:46.210Z,1.30
2022-08-20T21:06:51.220Z,1.10
2022-08-20T21:09:57.542Z,1.10
2022-08-20T21:13:03.893Z,1.52
2022-08-20T21:16:09.067Z,1.17
2022-08-20T21:19:13.510Z,1.50
2022-08-20T21:22:18.308Z,1.35
2022-08-20T21:25:21.575Z,1.30
2022-08-20T21:28:28.257Z,1.27
2022-08-20T21:31:35.854Z,1.30
2022-08-20T21:34:40.177Z,1.30
2022-08-20T21:37:44.184Z,1.23
2022-08-20T21:40:47.434Z,1.20
2022-08-20T21:43:51.408Z,1.48
2022-08-20T21:46:56.154Z,1.52
2022-08-20T21:50:00.347Z,1.65
2022-08-20T21:53:12.179Z,1.48
2022-08-20T21:56:15.970Z,1.80
2022-08-20T21:59:22.397Z,1.83
2022-08-20T22:05:30.890Z,1.83
2022-08-20T22:08:34.329Z,1.92
2022-08-20T22:11:38.329Z,2.13
2022-08-20T22:14:43.013Z,1.63
2022-08-20T22:17:46.533Z,1.88
2022-08-20T22:20:50.297Z,2.13
2022-08-20T22:23:55.606Z,2.60
2022-08-20T22:26:58.671Z,2.20
2022-08-20T22:30:01.991Z,2.03
2022-08-20T22:33:09.703Z,1.67
2022-08-20T22:36:12.762Z,2.00
2022-08-20T22:39:16.039Z,2.25
2022-08-20T22:42:19.058Z,2.33
2022-08-20T22:45:22.531Z,1.85
2022-08-20T22:48:26.911Z,1.98
2022-08-20T22:51:35.941Z,1.88
2022-08-20T22:54:44.543Z,2.30
2022-08-20T22:57:48.401Z,2.47
2022-08-20T23:00:54.163Z,2.75
2022-08-20T23:04:06.095Z,2.25
2022-08-20T23:07:18.005Z,2.60
2022-08-20T23:10:21.064Z,2.78
2022-08-20T23:13:25.385Z,2.63
2022-08-20T23:16:29.016Z,3.03
2022-08-20T23:19:32.682Z,3.63
2022-08-20T23:22:36.729Z,3.20
2022-08-20T23:25:41.557Z,3.20
2022-08-20T23:28:45.086Z,3.03
2022-08-20T23:31:48.718Z,2.47
2022-08-20T23:34:52.765Z,2.50
2022-08-20T23:37:58.979Z,2.67
2022-08-20T23:41:02.643Z,1.95
2022-08-20T23:44:06.237Z,1.92
2022-08-20T23:47:29.402Z,1.77
2022-08-20T23:50:33.247Z,1.80
2022-08-20T23:53:37.478Z,1.80
2022-08-20T23:56:40.735Z,1.98
2022-08-20T23:59:43.700Z,2.30
